sensor_id;sensor_type;location;lat;lon;timestamp;temperature;humidity
62464;SHT31;48512;48.552;9.380;2023-04-15T00:00:21;4.47;79.39
62464;SHT31;48512;48.552;9.380;2023-04-15T00:02:47;4.33;80.19
62464;SHT31;48512;48.552;9.380;2023-04-15T00:05:14;4.31;80.09
62464;SHT31;48512;48.552;9.380;2023-04-15T00:07:41;4.24;79.88
62464;SHT31;48512;48.552;9.380;2023-04-15T00:10:07;4.13;80.27
62464;SHT31;48512;48.552;9.380;2023-04-15T00:12:34;4.10;80.21
62464;SHT31;48512;48.552;9.380;2023-04-15T00:15:00;3.97;80.49
62464;SHT31;48512;48.552;9.380;2023-04-15T00:17:26;3.93;80.55
62464;SHT31;48512;48.552;9.380;2023-04-15T00:19:52;3.94;80.57
62464;SHT31;48512;48.552;9.380;2023-04-15T00:22:19;3.86;80.69
62464;SHT31;48512;48.552;9.380;2023-04-15T00:24:45;3.66;81.45
62464;SHT31;48512;48.552;9.380;2023-04-15T00:27:11;3.74;81.49
62464;SHT31;48512;48.552;9.380;2023-04-15T00:29:38;3.68;81.26
62464;SHT31;48512;48.552;9.380;2023-04-15T00:32:04;3.65;81.92
62464;SHT31;48512;48.552;9.380;2023-04-15T00:34:30;3.79;81.72
62464;SHT31;48512;48.552;9.380;2023-04-15T00:36:56;3.81;81.35
62464;SHT31;48512;48.552;9.380;2023-04-15T00:39:22;3.76;81.29
62464;SHT31;48512;48.552;9.380;2023-04-15T00:41:48;3.74;81.41
62464;SHT31;48512;48.552;9.380;2023-04-15T00:44:15;3.69;81.48
62464;SHT31;48512;48.552;9.380;2023-04-15T00:46:41;3.72;81.43
62464;SHT31;48512;48.552;9.380;2023-04-15T00:49:10;3.61;81.61
62464;SHT31;48512;48.552;9.380;2023-04-15T00:51:37;3.64;81.61
62464;SHT31;48512;48.552;9.380;2023-04-15T00:54:04;3.45;82.18
62464;SHT31;48512;48.552;9.380;2023-04-15T00:56:35;3.45;82.16
62464;SHT31;48512;48.552;9.380;2023-04-15T00:59:01;3.45;82.12
62464;SHT31;48512;48.552;9.380;2023-04-15T01:01:28;3.51;81.85
62464;SHT31;48512;48.552;9.380;2023-04-15T01:03:56;3.50;81.89
62464;SHT31;48512;48.552;9.380;2023-04-15T01:06:26;3.35;82.26
62464;SHT31;48512;48.552;9.380;2023-04-15T01:08:53;3.47;81.94
62464;SHT31;48512;48.552;9.380;2023-04-15T01:11:19;3.27;82.70
62464;SHT31;48512;48.552;9.380;2023-04-15T01:13:46;3.31;82.99
62464;SHT31;48512;48.552;9.380;2023-04-15T01:16:13;3.41;82.22
62464;SHT31;48512;48.552;9.380;2023-04-15T01:18:39;3.27;82.21
62464;SHT31;48512;48.552;9.380;2023-04-15T01:21:06;3.24;82.38
62464;SHT31;48512;48.552;9.380;2023-04-15T01:23:35;3.18;82.54
62464;SHT31;48512;48.552;9.380;2023-04-15T01:26:06;3.10;83.02
62464;SHT31;48512;48.552;9.380;2023-04-15T01:28:35;3.20;82.82
62464;SHT31;48512;48.552;9.380;2023-04-15T01:31:08;3.21;82.46
62464;SHT31;48512;48.552;9.380;2023-04-15T01:33:37;3.10;82.54
62464;SHT31;48512;48.552;9.380;2023-04-15T01:36:22;3.20;82.72
62464;SHT31;48512;48.552;9.380;2023-04-15T01:38:51;3.16;82.64
62464;SHT31;48512;48.552;9.380;2023-04-15T01:41:26;3.04;82.59
62464;SHT31;48512;48.552;9.380;2023-04-15T01:43:54;2.95;82.95
62464;SHT31;48512;48.552;9.380;2023-04-15T01:46:22;2.82;83.31
62464;SHT31;48512;48.552;9.380;2023-04-15T01:48:49;2.83;83.27
62464;SHT31;48512;48.552;9.380;2023-04-15T01:51:17;2.90;83.13
62464;SHT31;48512;48.552;9.380;2023-04-15T01:53:44;2.86;83.06
62464;SHT31;48512;48.552;9.380;2023-04-15T01:56:12;2.73;83.64
62464;SHT31;48512;48.552;9.380;2023-04-15T01:58:39;2.71;83.80
62464;SHT31;48512;48.552;9.380;2023-04-15T02:01:06;2.71;84.17
62464;SHT31;48512;48.552;9.380;2023-04-15T02:03:36;2.79;83.90
62464;SHT31;48512;48.552;9.380;2023-04-15T02:06:05;2.86;83.80
62464;SHT31;48512;48.552;9.380;2023-04-15T02:08:32;2.82;83.66
62464;SHT31;48512;48.552;9.380;2023-04-15T02:11:00;2.85;83.59
62464;SHT31;48512;48.552;9.380;2023-04-15T02:13:29;2.83;83.60
62464;SHT31;48512;48.552;9.380;2023-04-15T02:15:57;2.88;83.63
62464;SHT31;48512;48.552;9.380;2023-04-15T02:18:25;2.89;83.53
62464;SHT31;48512;48.552;9.380;2023-04-15T02:20:53;2.83;84.08
62464;SHT31;48512;48.552;9.380;2023-04-15T02:23:21;2.71;84.26
62464;SHT31;48512;48.552;9.380;2023-04-15T02:25:49;2.59;84.59
62464;SHT31;48512;48.552;9.380;2023-04-15T02:28:16;2.59;84.57
62464;SHT31;48512;48.552;9.380;2023-04-15T02:30:47;2.53;84.57
62464;SHT31;48512;48.552;9.380;2023-04-15T02:33:17;2.53;84.51
62464;SHT31;48512;48.552;9.380;2023-04-15T02:35:44;2.51;84.76
62464;SHT31;48512;48.552;9.380;2023-04-15T02:38:12;2.51;84.63
62464;SHT31;48512;48.552;9.380;2023-04-15T02:40:41;2.66;84.30
62464;SHT31;48512;48.552;9.380;2023-04-15T02:43:08;2.82;83.93
62464;SHT31;48512;48.552;9.380;2023-04-15T02:45:36;2.80;83.92
62464;SHT31;48512;48.552;9.380;2023-04-15T02:48:05;2.85;83.94
62464;SHT31;48512;48.552;9.380;2023-04-15T02:50:32;2.95;83.97
62464;SHT31;48512;48.552;9.380;2023-04-15T02:53:00;2.85;83.82
62464;SHT31;48512;48.552;9.380;2023-04-15T02:55:28;2.79;84.20
62464;SHT31;48512;48.552;9.380;2023-04-15T02:57:56;2.85;83.98
62464;SHT31;48512;48.552;9.380;2023-04-15T03:00:26;2.68;84.33
62464;SHT31;48512;48.552;9.380;2023-04-15T03:03:02;2.69;84.41
62464;SHT31;48512;48.552;9.380;2023-04-15T03:05:30;2.62;84.45
62464;SHT31;48512;48.552;9.380;2023-04-15T03:07:58;2.48;84.68
62464;SHT31;48512;48.552;9.380;2023-04-15T03:10:27;2.46;84.75
62464;SHT31;48512;48.552;9.380;2023-04-15T03:12:54;2.46;84.64
62464;SHT31;48512;48.552;9.380;2023-04-15T03:15:23;2.38;84.60
62464;SHT31;48512;48.552;9.380;2023-04-15T03:17:53;2.42;85.02
62464;SHT31;48512;48.552;9.380;2023-04-15T03:20:20;2.49;84.30
62464;SHT31;48512;48.552;9.380;2023-04-15T03:22:49;2.46;84.28
62464;SHT31;48512;48.552;9.380;2023-04-15T03:25:16;2.42;84.48
62464;SHT31;48512;48.552;9.380;2023-04-15T03:27:44;2.37;84.98
62464;SHT31;48512;48.552;9.380;2023-04-15T03:30:13;2.41;84.89
62464;SHT31;48512;48.552;9.380;2023-04-15T03:32:41;2.53;84.82
62464;SHT31;48512;48.552;9.380;2023-04-15T03:35:09;2.61;84.48
62464;SHT31;48512;48.552;9.380;2023-04-15T03:37:36;2.69;83.88
62464;SHT31;48512;48.552;9.380;2023-04-15T03:40:04;2.76;83.53
62464;SHT31;48512;48.552;9.380;2023-04-15T03:42:32;2.71;83.52
62464;SHT31;48512;48.552;9.380;2023-04-15T03:44:59;2.53;83.69
62464;SHT31;48512;48.552;9.380;2023-04-15T03:47:26;2.58;83.60
62464;SHT31;48512;48.552;9.380;2023-04-15T03:49:54;2.44;83.58
62464;SHT31;48512;48.552;9.380;2023-04-15T03:52:21;2.31;83.93
62464;SHT31;48512;48.552;9.380;2023-04-15T03:54:49;2.20;84.48
62464;SHT31;48512;48.552;9.380;2023-04-15T03:57:16;2.07;85.13
62464;SHT31;48512;48.552;9.380;2023-04-15T03:59:43;2.13;85.13
62464;SHT31;48512;48.552;9.380;2023-04-15T04:02:11;2.22;85.01
62464;SHT31;48512;48.552;9.380;2023-04-15T04:04:38;2.22;84.71
62464;SHT31;48512;48.552;9.380;2023-04-15T04:07:06;2.30;84.52
62464;SHT31;48512;48.552;9.380;2023-04-15T04:09:33;2.20;84.68
62464;SHT31;48512;48.552;9.380;2023-04-15T04:12:00;2.11;85.44
62464;SHT31;48512;48.552;9.380;2023-04-15T04:14:28;2.14;84.80
62464;SHT31;48512;48.552;9.380;2023-04-15T04:16:56;2.18;84.60
62464;SHT31;48512;48.552;9.380;2023-04-15T04:19:23;2.11;84.88
62464;SHT31;48512;48.552;9.380;2023-04-15T04:21:51;2.11;84.63
62464;SHT31;48512;48.552;9.380;2023-04-15T04:24:18;2.18;84.74
62464;SHT31;48512;48.552;9.380;2023-04-15T04:26:46;2.13;85.10
62464;SHT31;48512;48.552;9.380;2023-04-15T04:29:13;2.07;85.04
62464;SHT31;48512;48.552;9.380;2023-04-15T04:31:41;1.97;85.31
62464;SHT31;48512;48.552;9.380;2023-04-15T04:34:08;1.93;85.15
62464;SHT31;48512;48.552;9.380;2023-04-15T04:36:36;1.96;85.27
62464;SHT31;48512;48.552;9.380;2023-04-15T04:39:03;1.84;86.03
62464;SHT31;48512;48.552;9.380;2023-04-15T04:41:31;1.84;86.19
62464;SHT31;48512;48.552;9.380;2023-04-15T04:43:58;1.93;85.99
62464;SHT31;48512;48.552;9.380;2023-04-15T04:46:26;2.03;86.19
62464;SHT31;48512;48.552;9.380;2023-04-15T04:48:53;1.94;86.01
62464;SHT31;48512;48.552;9.380;2023-04-15T04:51:21;1.90;86.03
62464;SHT31;48512;48.552;9.380;2023-04-15T04:53:48;1.96;85.94
62464;SHT31;48512;48.552;9.380;2023-04-15T04:56:16;2.27;85.17
62464;SHT31;48512;48.552;9.380;2023-04-15T04:58:43;2.14;85.43
62464;SHT31;48512;48.552;9.380;2023-04-15T05:01:10;2.10;85.72
62464;SHT31;48512;48.552;9.380;2023-04-15T05:03:39;2.21;85.44
62464;SHT31;48512;48.552;9.380;2023-04-15T05:06:06;2.22;85.21
62464;SHT31;48512;48.552;9.380;2023-04-15T05:08:35;2.24;85.20
62464;SHT31;48512;48.552;9.380;2023-04-15T05:11:02;2.27;85.18
62464;SHT31;48512;48.552;9.380;2023-04-15T05:13:30;2.34;84.75
62464;SHT31;48512;48.552;9.380;2023-04-15T05:15:57;2.30;84.99
62464;SHT31;48512;48.552;9.380;2023-04-15T05:18:25;2.31;84.71
62464;SHT31;48512;48.552;9.380;2023-04-15T05:20:52;2.11;85.13
62464;SHT31;48512;48.552;9.380;2023-04-15T05:23:20;2.11;84.77
62464;SHT31;48512;48.552;9.380;2023-04-15T05:25:47;2.20;84.69
62464;SHT31;48512;48.552;9.380;2023-04-15T05:28:15;2.14;85.04
62464;SHT31;48512;48.552;9.380;2023-04-15T05:30:42;2.02;85.50
62464;SHT31;48512;48.552;9.380;2023-04-15T05:33:10;2.00;85.60
62464;SHT31;48512;48.552;9.380;2023-04-15T05:35:37;1.96;86.21
62464;SHT31;48512;48.552;9.380;2023-04-15T05:38:05;1.90;86.41
62464;SHT31;48512;48.552;9.380;2023-04-15T05:40:32;1.93;86.92
62464;SHT31;48512;48.552;9.380;2023-04-15T05:43:00;1.96;87.13
62464;SHT31;48512;48.552;9.380;2023-04-15T05:45:27;1.93;87.45
62464;SHT31;48512;48.552;9.380;2023-04-15T05:47:54;2.15;87.27
62464;SHT31;48512;48.552;9.380;2023-04-15T05:50:22;2.17;87.31
62464;SHT31;48512;48.552;9.380;2023-04-15T05:52:49;2.18;87.93
62464;SHT31;48512;48.552;9.380;2023-04-15T05:55:17;2.27;87.85
62464;SHT31;48512;48.552;9.380;2023-04-15T05:57:44;2.38;87.64
62464;SHT31;48512;48.552;9.380;2023-04-15T06:00:13;2.42;88.12
62464;SHT31;48512;48.552;9.380;2023-04-15T06:02:41;2.56;88.31
62464;SHT31;48512;48.552;9.380;2023-04-15T06:05:09;2.72;88.39
62464;SHT31;48512;48.552;9.380;2023-04-15T06:07:38;2.86;88.51
62464;SHT31;48512;48.552;9.380;2023-04-15T06:10:06;3.10;88.00
62464;SHT31;48512;48.552;9.380;2023-04-15T06:12:34;3.32;87.86
62464;SHT31;48512;48.552;9.380;2023-04-15T06:15:01;3.37;87.81
62464;SHT31;48512;48.552;9.380;2023-04-15T06:17:30;3.56;87.66
62464;SHT31;48512;48.552;9.380;2023-04-15T06:19:57;3.69;87.85
62464;SHT31;48512;48.552;9.380;2023-04-15T06:22:24;3.89;87.50
62464;SHT31;48512;48.552;9.380;2023-04-15T06:24:52;4.13;87.40
62464;SHT31;48512;48.552;9.380;2023-04-15T06:27:20;4.33;87.46
62464;SHT31;48512;48.552;9.380;2023-04-15T06:29:49;4.50;87.38
62464;SHT31;48512;48.552;9.380;2023-04-15T06:32:16;4.65;86.74
62464;SHT31;48512;48.552;9.380;2023-04-15T06:34:43;4.85;86.38
62464;SHT31;48512;48.552;9.380;2023-04-15T06:37:11;5.06;85.69
62464;SHT31;48512;48.552;9.380;2023-04-15T06:39:42;5.26;84.88
62464;SHT31;48512;48.552;9.380;2023-04-15T06:42:10;5.55;84.01
62464;SHT31;48512;48.552;9.380;2023-04-15T06:44:38;5.74;83.51
62464;SHT31;48512;48.552;9.380;2023-04-15T06:47:06;5.96;82.80
62464;SHT31;48512;48.552;9.380;2023-04-15T06:49:33;6.13;82.35
62464;SHT31;48512;48.552;9.380;2023-04-15T06:52:01;6.27;81.53
62464;SHT31;48512;48.552;9.380;2023-04-15T06:54:29;6.44;80.82
62464;SHT31;48512;48.552;9.380;2023-04-15T06:56:56;6.63;79.96
62464;SHT31;48512;48.552;9.380;2023-04-15T06:59:24;6.70;79.61
62464;SHT31;48512;48.552;9.380;2023-04-15T07:01:51;6.82;79.37
62464;SHT31;48512;48.552;9.380;2023-04-15T07:04:18;6.88;78.96
62464;SHT31;48512;48.552;9.380;2023-04-15T07:06:46;6.95;78.48
62464;SHT31;48512;48.552;9.380;2023-04-15T07:09:14;7.15;78.48
62464;SHT31;48512;48.552;9.380;2023-04-15T07:11:42;7.30;77.78
62464;SHT31;48512;48.552;9.380;2023-04-15T07:14:09;7.37;77.96
62464;SHT31;48512;48.552;9.380;2023-04-15T07:16:37;7.44;77.92
62464;SHT31;48512;48.552;9.380;2023-04-15T07:19:04;7.53;77.97
62464;SHT31;48512;48.552;9.380;2023-04-15T07:21:32;7.64;77.67
62464;SHT31;48512;48.552;9.380;2023-04-15T07:23:59;7.75;77.01
62464;SHT31;48512;48.552;9.380;2023-04-15T07:26:27;7.82;76.01
62464;SHT31;48512;48.552;9.380;2023-04-15T07:28:54;7.92;75.46
62464;SHT31;48512;48.552;9.380;2023-04-15T07:31:22;8.01;75.13
62464;SHT31;48512;48.552;9.380;2023-04-15T07:33:52;8.12;74.43
62464;SHT31;48512;48.552;9.380;2023-04-15T07:36:19;8.12;73.73
62464;SHT31;48512;48.552;9.380;2023-04-15T07:38:47;8.17;73.96
62464;SHT31;48512;48.552;9.380;2023-04-15T07:41:15;8.28;73.75
62464;SHT31;48512;48.552;9.380;2023-04-15T07:43:42;8.43;73.40
62464;SHT31;48512;48.552;9.380;2023-04-15T07:46:10;8.53;73.30
62464;SHT31;48512;48.552;9.380;2023-04-15T07:48:38;8.52;74.19
62464;SHT31;48512;48.552;9.380;2023-04-15T07:51:05;8.65;74.13
62464;SHT31;48512;48.552;9.380;2023-04-15T07:53:33;8.80;74.31
62464;SHT31;48512;48.552;9.380;2023-04-15T07:56:00;9.02;74.12
62464;SHT31;48512;48.552;9.380;2023-04-15T07:58:28;9.15;73.24
62464;SHT31;48512;48.552;9.380;2023-04-15T08:00:56;9.26;71.88
62464;SHT31;48512;48.552;9.380;2023-04-15T08:03:23;9.70;71.42
62464;SHT31;48512;48.552;9.380;2023-04-15T08:05:51;9.61;70.19
62464;SHT31;48512;48.552;9.380;2023-04-15T08:08:18;9.63;69.79
62464;SHT31;48512;48.552;9.380;2023-04-15T08:10:46;9.64;69.76
62464;SHT31;48512;48.552;9.380;2023-04-15T08:13:13;9.80;68.91
62464;SHT31;48512;48.552;9.380;2023-04-15T08:15:41;9.85;69.18
62464;SHT31;48512;48.552;9.380;2023-04-15T08:18:08;9.87;69.03
62464;SHT31;48512;48.552;9.380;2023-04-15T08:20:35;9.94;67.41
62464;SHT31;48512;48.552;9.380;2023-04-15T08:23:03;9.97;67.68
62464;SHT31;48512;48.552;9.380;2023-04-15T08:25:31;10.06;66.97
62464;SHT31;48512;48.552;9.380;2023-04-15T08:28:03;10.12;66.17
62464;SHT31;48512;48.552;9.380;2023-04-15T08:30:30;10.33;65.44
62464;SHT31;48512;48.552;9.380;2023-04-15T08:32:58;10.43;65.10
62464;SHT31;48512;48.552;9.380;2023-04-15T08:35:25;10.64;63.87
62464;SHT31;48512;48.552;9.380;2023-04-15T08:37:53;10.76;64.88
62464;SHT31;48512;48.552;9.380;2023-04-15T08:40:21;10.90;63.78
62464;SHT31;48512;48.552;9.380;2023-04-15T08:42:50;10.96;63.31
62464;SHT31;48512;48.552;9.380;2023-04-15T08:45:19;11.12;63.50
62464;SHT31;48512;48.552;9.380;2023-04-15T08:47:49;11.15;63.52
62464;SHT31;48512;48.552;9.380;2023-04-15T08:50:21;11.29;61.68
62464;SHT31;48512;48.552;9.380;2023-04-15T08:52:53;11.45;60.44
62464;SHT31;48512;48.552;9.380;2023-04-15T08:55:21;11.61;58.76
62464;SHT31;48512;48.552;9.380;2023-04-15T08:57:50;11.73;58.43
62464;SHT31;48512;48.552;9.380;2023-04-15T09:00:17;12.14;58.90
62464;SHT31;48512;48.552;9.380;2023-04-15T09:02:45;12.53;58.46
62464;SHT31;48512;48.552;9.380;2023-04-15T09:05:13;12.90;58.62
62464;SHT31;48512;48.552;9.380;2023-04-15T09:07:40;13.00;56.02
62464;SHT31;48512;48.552;9.380;2023-04-15T09:10:08;13.24;54.55
62464;SHT31;48512;48.552;9.380;2023-04-15T09:12:36;13.48;52.69
62464;SHT31;48512;48.552;9.380;2023-04-15T09:15:04;13.66;52.01
62464;SHT31;48512;48.552;9.380;2023-04-15T09:17:32;13.83;52.48
62464;SHT31;48512;48.552;9.380;2023-04-15T09:20:16;14.23;52.20
62464;SHT31;48512;48.552;9.380;2023-04-15T09:22:46;14.45;50.14
62464;SHT31;48512;48.552;9.380;2023-04-15T09:27:52;14.61;50.64
62464;SHT31;48512;48.552;9.380;2023-04-15T09:30:19;14.93;50.36
62464;SHT31;48512;48.552;9.380;2023-04-15T09:32:58;15.20;48.52
62464;SHT31;48512;48.552;9.380;2023-04-15T09:35:25;15.39;48.68
62464;SHT31;48512;48.552;9.380;2023-04-15T09:38:01;15.50;47.81
62464;SHT31;48512;48.552;9.380;2023-04-15T09:40:33;15.40;47.49
62464;SHT31;48512;48.552;9.380;2023-04-15T09:43:02;15.46;46.89
62464;SHT31;48512;48.552;9.380;2023-04-15T09:45:32;15.43;47.87
62464;SHT31;48512;48.552;9.380;2023-04-15T09:48:15;15.82;47.19
62464;SHT31;48512;48.552;9.380;2023-04-15T09:50:43;15.60;46.96
62464;SHT31;48512;48.552;9.380;2023-04-15T09:53:20;15.75;46.76
62464;SHT31;48512;48.552;9.380;2023-04-15T09:58:18;15.70;45.51
62464;SHT31;48512;48.552;9.380;2023-04-15T10:00:47;15.68;46.74
62464;SHT31;48512;48.552;9.380;2023-04-15T10:03:32;15.40;47.34
62464;SHT31;48512;48.552;9.380;2023-04-15T10:06:00;15.49;47.62
62464;SHT31;48512;48.552;9.380;2023-04-15T10:08:30;15.50;47.11
62464;SHT31;48512;48.552;9.380;2023-04-15T10:11:02;15.67;46.00
62464;SHT31;48512;48.552;9.380;2023-04-15T10:13:30;16.18;45.14
62464;SHT31;48512;48.552;9.380;2023-04-15T10:18:35;16.52;46.37
62464;SHT31;48512;48.552;9.380;2023-04-15T10:21:04;16.36;45.64
62464;SHT31;48512;48.552;9.380;2023-04-15T10:23:32;16.50;45.66
62464;SHT31;48512;48.552;9.380;2023-04-15T10:26:00;16.74;45.00
62464;SHT31;48512;48.552;9.380;2023-04-15T10:28:28;16.89;45.22
62464;SHT31;48512;48.552;9.380;2023-04-15T10:30:57;17.19;45.37
62464;SHT31;48512;48.552;9.380;2023-04-15T10:33:26;17.25;47.00
62464;SHT31;48512;48.552;9.380;2023-04-15T10:35:54;17.42;45.65
62464;SHT31;48512;48.552;9.380;2023-04-15T10:38:41;17.05;46.20
62464;SHT31;48512;48.552;9.380;2023-04-15T10:41:19;16.80;47.45
62464;SHT31;48512;48.552;9.380;2023-04-15T10:46:23;17.08;46.97
62464;SHT31;48512;48.552;9.380;2023-04-15T10:48:52;17.28;46.31
62464;SHT31;48512;48.552;9.380;2023-04-15T10:51:28;17.03;44.60
62464;SHT31;48512;48.552;9.380;2023-04-15T10:53:59;16.78;42.49
62464;SHT31;48512;48.552;9.380;2023-04-15T10:56:28;17.15;43.42
62464;SHT31;48512;48.552;9.380;2023-04-15T10:58:58;17.49;43.33
62464;SHT31;48512;48.552;9.380;2023-04-15T11:01:54;17.86;42.57
62464;SHT31;48512;48.552;9.380;2023-04-15T11:04:57;17.89;43.95
62464;SHT31;48512;48.552;9.380;2023-04-15T11:10:01;17.25;44.17
62464;SHT31;48512;48.552;9.380;2023-04-15T11:12:35;17.28;44.72
62464;SHT31;48512;48.552;9.380;2023-04-15T11:17:52;17.74;42.11
62464;SHT31;48512;48.552;9.380;2023-04-15T11:20:19;17.49;41.28
62464;SHT31;48512;48.552;9.380;2023-04-15T11:22:51;17.52;40.32
62464;SHT31;48512;48.552;9.380;2023-04-15T11:25:26;17.79;39.81
62464;SHT31;48512;48.552;9.380;2023-04-15T11:27:54;17.79;38.58
62464;SHT31;48512;48.552;9.380;2023-04-15T11:30:23;17.84;37.64
62464;SHT31;48512;48.552;9.380;2023-04-15T11:32:53;18.21;37.51
62464;SHT31;48512;48.552;9.380;2023-04-15T11:35:21;18.48;38.16
62464;SHT31;48512;48.552;9.380;2023-04-15T11:37:49;18.27;37.82
62464;SHT31;48512;48.552;9.380;2023-04-15T11:40:22;18.21;39.01
62464;SHT31;48512;48.552;9.380;2023-04-15T11:43:07;18.15;38.67
62464;SHT31;48512;48.552;9.380;2023-04-15T11:45:35;17.98;39.07
62464;SHT31;48512;48.552;9.380;2023-04-15T11:48:07;18.51;39.43
62464;SHT31;48512;48.552;9.380;2023-04-15T11:50:36;18.48;39.24
62464;SHT31;48512;48.552;9.380;2023-04-15T11:53:07;18.35;39.92
62464;SHT31;48512;48.552;9.380;2023-04-15T11:55:44;17.83;38.71
62464;SHT31;48512;48.552;9.380;2023-04-15T11:58:22;18.08;40.29
62464;SHT31;48512;48.552;9.380;2023-04-15T12:00:50;17.90;41.10
62464;SHT31;48512;48.552;9.380;2023-04-15T12:03:22;17.89;40.91
62464;SHT31;48512;48.552;9.380;2023-04-15T12:06:04;17.67;41.46
62464;SHT31;48512;48.552;9.380;2023-04-15T12:11:19;17.16;41.97
62464;SHT31;48512;48.552;9.380;2023-04-15T12:13:46;16.87;42.68
62464;SHT31;48512;48.552;9.380;2023-04-15T12:16:17;16.92;42.80
62464;SHT31;48512;48.552;9.380;2023-04-15T12:18:50;16.66;43.26
62464;SHT31;48512;48.552;9.380;2023-04-15T12:21:20;16.83;43.66
62464;SHT31;48512;48.552;9.380;2023-04-15T12:23:48;17.29;43.21
62464;SHT31;48512;48.552;9.380;2023-04-15T12:26:17;17.80;42.10
62464;SHT31;48512;48.552;9.380;2023-04-15T12:31:28;18.92;40.57
62464;SHT31;48512;48.552;9.380;2023-04-15T12:33:56;18.37;41.25
62464;SHT31;48512;48.552;9.380;2023-04-15T12:36:23;18.15;41.51
62464;SHT31;48512;48.552;9.380;2023-04-15T12:38:49;17.91;42.15
62464;SHT31;48512;48.552;9.380;2023-04-15T12:41:15;17.56;42.71
62464;SHT31;48512;48.552;9.380;2023-04-15T12:43:43;17.16;43.17
62464;SHT31;48512;48.552;9.380;2023-04-15T12:46:10;16.70;45.28
62464;SHT31;48512;48.552;9.380;2023-04-15T12:48:36;16.40;48.30
62464;SHT31;48512;48.552;9.380;2023-04-15T12:51:02;15.87;53.44
62464;SHT31;48512;48.552;9.380;2023-04-15T12:53:29;15.71;55.64
62464;SHT31;48512;48.552;9.380;2023-04-15T12:55:55;15.67;55.88
62464;SHT31;48512;48.552;9.380;2023-04-15T12:58:21;15.67;56.55
62464;SHT31;48512;48.552;9.380;2023-04-15T13:00:47;15.71;56.91
62464;SHT31;48512;48.552;9.380;2023-04-15T13:03:14;15.44;59.10
62464;SHT31;48512;48.552;9.380;2023-04-15T13:05:41;15.44;58.41
62464;SHT31;48512;48.552;9.380;2023-04-15T13:08:07;15.55;58.18
62464;SHT31;48512;48.552;9.380;2023-04-15T13:10:34;15.51;58.74
62464;SHT31;48512;48.552;9.380;2023-04-15T13:13:04;15.46;59.48
62464;SHT31;48512;48.552;9.380;2023-04-15T13:15:30;15.46;58.27
62464;SHT31;48512;48.552;9.380;2023-04-15T13:17:56;15.08;57.99
62464;SHT31;48512;48.552;9.380;2023-04-15T13:20:23;14.64;60.18
62464;SHT31;48512;48.552;9.380;2023-04-15T13:22:51;14.41;62.03
62464;SHT31;48512;48.552;9.380;2023-04-15T13:25:18;14.26;63.45
62464;SHT31;48512;48.552;9.380;2023-04-15T13:27:44;13.79;63.48
62464;SHT31;48512;48.552;9.380;2023-04-15T13:30:10;13.50;64.63
62464;SHT31;48512;48.552;9.380;2023-04-15T13:32:36;13.53;63.90
62464;SHT31;48512;48.552;9.380;2023-04-15T13:35:03;13.55;64.24
62464;SHT31;48512;48.552;9.380;2023-04-15T13:37:30;13.40;64.34
62464;SHT31;48512;48.552;9.380;2023-04-15T13:39:56;13.31;64.70
62464;SHT31;48512;48.552;9.380;2023-04-15T13:42:23;13.16;65.18
62464;SHT31;48512;48.552;9.380;2023-04-15T13:44:50;13.31;64.03
62464;SHT31;48512;48.552;9.380;2023-04-15T13:47:18;13.43;64.57
62464;SHT31;48512;48.552;9.380;2023-04-15T13:49:44;13.24;64.23
62464;SHT31;48512;48.552;9.380;2023-04-15T13:52:11;13.53;63.41
62464;SHT31;48512;48.552;9.380;2023-04-15T13:54:37;13.45;62.89
62464;SHT31;48512;48.552;9.380;2023-04-15T13:57:04;13.40;62.28
62464;SHT31;48512;48.552;9.380;2023-04-15T13:59:32;13.40;62.15
62464;SHT31;48512;48.552;9.380;2023-04-15T14:01:59;13.50;61.71
62464;SHT31;48512;48.552;9.380;2023-04-15T14:04:25;13.76;64.47
62464;SHT31;48512;48.552;9.380;2023-04-15T14:06:52;14.47;63.95
62464;SHT31;48512;48.552;9.380;2023-04-15T14:09:18;14.45;59.19
62464;SHT31;48512;48.552;9.380;2023-04-15T14:11:44;14.24;59.12
62464;SHT31;48512;48.552;9.380;2023-04-15T14:14:10;13.87;58.81
62464;SHT31;48512;48.552;9.380;2023-04-15T14:16:36;13.87;59.30
62464;SHT31;48512;48.552;9.380;2023-04-15T14:19:02;13.83;60.05
62464;SHT31;48512;48.552;9.380;2023-04-15T14:21:28;14.03;62.21
62464;SHT31;48512;48.552;9.380;2023-04-15T14:23:57;14.69;63.60
62464;SHT31;48512;48.552;9.380;2023-04-15T14:26:23;15.05;59.91
62464;SHT31;48512;48.552;9.380;2023-04-15T14:28:50;15.27;59.22
62464;SHT31;48512;48.552;9.380;2023-04-15T14:31:18;15.40;58.81
62464;SHT31;48512;48.552;9.380;2023-04-15T14:33:44;15.54;57.32
62464;SHT31;48512;48.552;9.380;2023-04-15T14:36:11;15.65;56.18
62464;SHT31;48512;48.552;9.380;2023-04-15T14:38:37;15.73;56.02
62464;SHT31;48512;48.552;9.380;2023-04-15T14:41:07;15.75;54.99
62464;SHT31;48512;48.552;9.380;2023-04-15T14:43:35;15.77;54.97
62464;SHT31;48512;48.552;9.380;2023-04-15T14:46:01;15.81;54.87
62464;SHT31;48512;48.552;9.380;2023-04-15T14:48:27;15.84;54.37
62464;SHT31;48512;48.552;9.380;2023-04-15T14:50:54;15.73;53.09
62464;SHT31;48512;48.552;9.380;2023-04-15T14:53:20;15.08;51.90
62464;SHT31;48512;48.552;9.380;2023-04-15T14:55:46;14.63;53.08
62464;SHT31;48512;48.552;9.380;2023-04-15T14:58:12;14.31;52.22
62464;SHT31;48512;48.552;9.380;2023-04-15T15:00:38;14.14;52.95
62464;SHT31;48512;48.552;9.380;2023-04-15T15:03:10;13.83;53.50
62464;SHT31;48512;48.552;9.380;2023-04-15T15:05:44;13.62;53.71
62464;SHT31;48512;48.552;9.380;2023-04-15T15:08:12;13.57;54.58
62464;SHT31;48512;48.552;9.380;2023-04-15T15:10:39;13.43;54.75
62464;SHT31;48512;48.552;9.380;2023-04-15T15:13:07;13.38;55.02
62464;SHT31;48512;48.552;9.380;2023-04-15T15:15:34;13.38;52.01
62464;SHT31;48512;48.552;9.380;2023-04-15T15:18:00;13.17;51.09
62464;SHT31;48512;48.552;9.380;2023-04-15T15:20:27;13.02;51.87
62464;SHT31;48512;48.552;9.380;2023-04-15T15:22:54;12.86;50.53
62464;SHT31;48512;48.552;9.380;2023-04-15T15:25:20;12.72;50.83
62464;SHT31;48512;48.552;9.380;2023-04-15T15:27:46;12.65;51.33
62464;SHT31;48512;48.552;9.380;2023-04-15T15:30:13;12.63;51.42
62464;SHT31;48512;48.552;9.380;2023-04-15T15:32:40;12.62;52.11
62464;SHT31;48512;48.552;9.380;2023-04-15T15:35:07;12.53;52.51
62464;SHT31;48512;48.552;9.380;2023-04-15T15:37:34;12.46;52.93
62464;SHT31;48512;48.552;9.380;2023-04-15T15:40:02;12.42;53.09
62464;SHT31;48512;48.552;9.380;2023-04-15T15:42:32;12.25;53.75
62464;SHT31;48512;48.552;9.380;2023-04-15T15:44:58;12.23;53.76
62464;SHT31;48512;48.552;9.380;2023-04-15T15:47:25;12.18;54.30
62464;SHT31;48512;48.552;9.380;2023-04-15T15:49:52;12.18;54.54
62464;SHT31;48512;48.552;9.380;2023-04-15T15:52:19;11.90;55.85
62464;SHT31;48512;48.552;9.380;2023-04-15T15:54:45;11.90;56.65
62464;SHT31;48512;48.552;9.380;2023-04-15T15:57:11;11.96;56.57
62464;SHT31;48512;48.552;9.380;2023-04-15T15:59:37;11.75;57.23
62464;SHT31;48512;48.552;9.380;2023-04-15T16:02:10;11.72;58.37
62464;SHT31;48512;48.552;9.380;2023-04-15T16:04:37;11.65;58.44
62464;SHT31;48512;48.552;9.380;2023-04-15T16:07:04;11.48;59.17